ADDS METAR Data INFO
IDs: Format: Raw Decoded Include TAF

Data at: 1929 UTC 19 Jul 2018

KCVX 191915Z AUTO 34008KT 10SM CLR 24/12 A3001 RMK AO2 T02370121
KCVX 191855Z AUTO 32007KT 10SM CLR 25/12 A3002 RMK AO2 T02450123
KCVX 191835Z AUTO 29008KT 10SM CLR 25/12 A3002 RMK AO2 T02450118
KCVX 191815Z AUTO 31007KT 10SM CLR 25/12 A3002 RMK AO2 T02500120
KCVX 191755Z AUTO 26007KT 10SM CLR 25/11 A3002 RMK AO2 T02480110 10251 20146
KCVX 191735Z AUTO 31007KT 10SM CLR 25/12 A3003 RMK AO2 T02480116
KCVX 191715Z AUTO 30006KT 10SM CLR 24/14 A3003 RMK AO2 T02430141
KCVX 191655Z AUTO 30009KT 10SM CLR 24/13 A3004 RMK AO2 T02400131
KCVX 191635Z AUTO 09006KT 10SM CLR 24/08 A3004 RMK AO2 T02420075
KCVX 191615Z AUTO 07008KT 10SM CLR 24/07 A3005 RMK AO2 T02350070
KCVX 191555Z AUTO 07007KT 10SM CLR 24/07 A3005 RMK AO2 T02350072
KCVX 191535Z AUTO 08005KT 10SM CLR 23/09 A3006 RMK AO2 T02260093
KCVX 191515Z AUTO 08005KT 10SM CLR 22/09 A3006 RMK AO2 T02210091
KCVX 191455Z AUTO 06005KT 10SM CLR 22/09 A3007 RMK AO2 T02190085
KCVX 191435Z AUTO 09005KT 10SM CLR 21/13 A3007 RMK AO2 T02140127
KCVX 191415Z AUTO 07005KT 10SM CLR 21/13 A3007 RMK AO2 T02100133
KCVX 191355Z AUTO 12003KT 10SM CLR 21/13 A3007 RMK AO2 T02100125
KCVX 191335Z AUTO 15003KT 10SM CLR 21/12 A3008 RMK AO2 T02060123
KCVX 191315Z AUTO 16003KT 10SM CLR 19/13 A3008 RMK AO2 T01940132
KCVX 191255Z AUTO 09003KT 10SM CLR 18/13 A3008 RMK AO2 T01800129
KCVX 191235Z AUTO 09003KT 10SM CLR 17/12 A3008 RMK AO2 T01670124
KCVX 191215Z AUTO 00000KT 10SM CLR 16/12 A3008 RMK AO2 T01550120
KCVX 191155Z AUTO 11003KT 10SM CLR 15/12 A3008 RMK AO2 T01450117 10145 20117
KCVX 191135Z AUTO 00000KT 10SM CLR 13/12 A3009 RMK AO2 T01300118
KCVX 191115Z AUTO 12003KT 10SM CLR 12/12 A3009 RMK AO2 T01220121
KCVX 191055Z AUTO 12003KT 10SM CLR 12/12 A3009 RMK AO2 T01200119
KCVX 191035Z AUTO 11003KT 10SM CLR 12/12 A3009 RMK AO2 T01180116
KCVX 191015Z AUTO 11003KT 10SM CLR 12/12 A3009 RMK AO2 T01170117
KCVX 190955Z AUTO 11003KT 10SM CLR 12/11 A3009 RMK AO2 T01170109
KCVX 190935Z AUTO 00000KT 10SM CLR 12/11 A3008 RMK AO2 T01200109
KCVX 190915Z AUTO 00000KT 10SM CLR 12/10 A3008 RMK AO2 T01230103
KCVX 190855Z AUTO 00000KT 10SM CLR 13/11 A3008 RMK AO2 T01260106
KCVX 190835Z AUTO 00000KT 10SM CLR 13/11 A3008 RMK AO2 T01300105
KCVX 190815Z AUTO 00000KT 10SM CLR 13/11 A3008 RMK AO2 T01260111
KCVX 190755Z AUTO 00000KT 10SM CLR 12/11 A3008 RMK AO2 T01170110
KCVX 190735Z AUTO 00000KT 10SM CLR 12/11 A3008 RMK AO2 T01220112
KCVX 190715Z AUTO 00000KT 10SM CLR 13/12 A3008 RMK AO2 T01250115
KCVX 190655Z AUTO 13003KT 10SM CLR 13/12 A3008 RMK AO2 T01280118
KCVX 190635Z AUTO 11003KT 10SM CLR 13/12 A3008 RMK AO2 T01290120
KCVX 190615Z AUTO 14003KT 10SM CLR 13/12 A3008 RMK AO2 T01260120
KCVX 190555Z AUTO 15003KT 10SM CLR 13/13 A3008 RMK AO2 T01250125 10201 20122
KCVX 190535Z AUTO 00000KT 10SM CLR 12/12 A3008 RMK AO2 T01220121
KCVX 190515Z AUTO 00000KT 10SM CLR 14/12 A3008 RMK AO2 T01350121
KCVX 190455Z AUTO 00000KT 10SM CLR 13/13 A3009 RMK AO2 T01260126
KCVX 190435Z AUTO 00000KT 10SM CLR 13/13 A3009 RMK AO2 T01280128
KCVX 190415Z AUTO 00000KT 10SM CLR 13/12 A3009 RMK AO2 T01250124
KCVX 190355Z AUTO 00000KT 10SM CLR 13/12 A3009 RMK AO2 T01270120 402130087
KCVX 190335Z AUTO 00000KT 10SM CLR 13/12 A3009 RMK AO2 T01270120
KCVX 190315Z AUTO 00000KT 10SM CLR 13/11 A3008 RMK AO2 T01340112
KCVX 190255Z AUTO 00000KT 10SM CLR 14/11 A3008 RMK AO2 T01360111
KCVX 190235Z AUTO 00000KT 10SM CLR 15/11 A3009 RMK AO2 T01490112
KCVX 190215Z AUTO 00000KT 10SM CLR 15/11 A3009 RMK AO2 T01540111
KCVX 190155Z AUTO 00000KT 10SM CLR 16/11 A3009 RMK AO2 T01620111
KCVX 190136Z AUTO 00000KT 10SM CLR 17/11 A3008 RMK AO2 T01670110
KCVX 190115Z AUTO 25004KT 10SM CLR 18/11 A3008 RMK AO2 T01760110
KCVX 190055Z AUTO 27005KT 10SM CLR 19/11 A3009 RMK AO2 T01860107
KCVX 190035Z AUTO 25004KT 10SM CLR 19/10 A3009 RMK AO2 T01920104
KCVX 190015Z AUTO 27005KT 10SM CLR 20/11 A3009 RMK AO2 T01970107
KCVX 182355Z AUTO 27007KT 10SM CLR 20/11 A3009 RMK AO2 T02030105 10213 20190
KCVX 182335Z AUTO 23006KT 10SM CLR 21/08 A3010 RMK AO2 T02080082
KCVX 182315Z AUTO 26003KT 10SM CLR 21/08 A3009 RMK AO2 T02060082
KCVX 182255Z AUTO 27005KT 10SM CLR 20/08 A3010 RMK AO2 T02020083
KCVX 182235Z AUTO 27005KT 10SM CLR 21/09 A3010 RMK AO2 T02070093
KCVX 182215Z AUTO 27006KT 10SM CLR 21/10 A3011 RMK AO2 T02060095
KCVX 182155Z AUTO 30006KT 10SM CLR 21/10 A3011 RMK AO2 T02090095
KCVX 182135Z AUTO 24006KT 10SM CLR 21/09 A3012 RMK AO2 T02110092
KCVX 182115Z AUTO 27006KT 10SM CLR 21/09 A3012 RMK AO2 T02120091
KCVX 182055Z AUTO 28007KT 10SM CLR 21/09 A3013 RMK AO2 T02070086
KCVX 182035Z AUTO 27006KT 10SM CLR 21/09 A3013 RMK AO2 T02090094
KCVX 182015Z AUTO 29005KT 10SM CLR 21/09 A3013 RMK AO2 T02050091
KCVX 181955Z AUTO 30005KT 10SM CLR 20/10 A3014 RMK AO2 T02040095
KCVX 181935Z AUTO 32005KT 10SM CLR 20/09 A3014 RMK AO2 T02030091
KCVX 181915Z AUTO 31007KT 10SM CLR 20/09 A3015 RMK AO2 T02010089
KCVX 181855Z AUTO 32006KT 10SM CLR 20/10 A3015 RMK AO2 T01990098
KCVX 181835Z AUTO 32006KT 10SM CLR 20/10 A3016 RMK AO2 T01960103
KCVX 181815Z AUTO 36006KT 10SM CLR 19/09 A3016 RMK AO2 T01940091
KCVX 181755Z AUTO 35006KT 10SM CLR 19/10 A3016 RMK AO2 T01910099 10195 20146
KCVX 181735Z AUTO 33005KT 10SM CLR 19/09 A3016 RMK AO2 T01910094
KCVX 181715Z AUTO 36003KT 10SM CLR 19/11 A3016 RMK AO2 T01860105
KCVX 181655Z AUTO 33006KT 300V360 10SM CLR 19/10 A3017 RMK AO2 T01890104
KCVX 181635Z AUTO 30006KT 10SM CLR 19/11 A3018 RMK AO2 T01930108
KCVX 181615Z AUTO 32005KT 10SM CLR 19/11 A3018 RMK AO2 T01940111
KCVX 181555Z AUTO 25006KT 10SM CLR 19/11 A3019 RMK AO2 T01940111
KCVX 181535Z AUTO 29005KT 10SM CLR 19/11 A3019 RMK AO2 T01900107
KCVX 181515Z AUTO 30009KT 10SM CLR 18/12 A3019 RMK AO2 T01820115
KCVX 181455Z AUTO 28005KT 10SM SCT017 18/12 A3019 RMK AO2 T01790118
KCVX 181435Z AUTO 29007KT 10SM SCT015 18/12 A3019 RMK AO2 T01800121
KCVX 181415Z AUTO 28006KT 10SM BKN015 17/12 A3019 RMK AO2 T01730122
KCVX 181355Z AUTO 29006KT 10SM BKN015 18/12 A3020 RMK AO2 T01750123
KCVX 181335Z AUTO 29005KT 10SM OVC015 17/12 A3020 RMK AO2 T01670124
KCVX 181315Z AUTO 30005KT 10SM OVC015 17/12 A3019 RMK AO2 T01690124
KCVX 181255Z AUTO 30006KT 10SM BKN015 17/13 A3019 RMK AO2 T01680128
KCVX 181235Z AUTO 29005KT 10SM SCT013 SCT019 17/12 A3019 RMK AO2 T01690120
KCVX 181215Z AUTO 26004KT 10SM CLR 16/11 A3019 RMK AO2 T01580108
KCVX 181155Z AUTO 00000KT 10SM CLR 14/11 A3018 RMK AO2 T01420111 10151 20087
KCVX 181135Z AUTO 00000KT 10SM CLR 13/12 A3018 RMK AO2 T01300124
KCVX 181115Z AUTO 00000KT 10SM CLR 11/11 A3018 RMK AO2 T01110111
KCVX 181055Z AUTO 00000KT 10SM CLR 10/10 A3017 RMK AO2 T01040104
KCVX 181035Z AUTO 20003KT 10SM CLR 10/10 A3017 RMK AO2 T00990099
KCVX 181015Z AUTO 00000KT 10SM CLR 10/10 A3018 RMK AO2 T00960096
KCVX 180955Z AUTO 22003KT 10SM CLR 09/09 A3017 RMK AO2 T00910091
KCVX 180935Z AUTO 00000KT 10SM CLR 10/10 A3017 RMK AO2 T00970097
KCVX 180915Z AUTO 00000KT 10SM CLR 10/10 A3017 RMK AO2 T00960095
KCVX 180855Z AUTO 00000KT 10SM CLR 10/10 A3016 RMK AO2 T01010101
KCVX 180835Z AUTO 00000KT 10SM CLR 10/10 A3017 RMK AO2 T00980098
KCVX 180815Z AUTO 00000KT 10SM CLR 10/09 A3017 RMK AO2 T01020091
KCVX 180755Z AUTO 00000KT 10SM CLR 11/09 A3017 RMK AO2 T01100087
KCVX 180735Z AUTO 00000KT 10SM CLR 13/09 A3017 RMK AO2 T01310085